KFWA/FWA METAR and TAF weather

Enter ICAO airport designator
Station Type Date Time Source
KFWA METAR 2022/01/27 23:54 UTC NOAA

KFWA 272354Z 23011KT 10SM OVC019 M02/M05 A3014 RMK AO2 SLP219 4/003 T10171050 11017 21044 53016


Station Type Date Time Source
KFWA Decoded METAR 2022/01/27 23:54 UTC NOAA

FORT WAYNE INTERNATIONAL, IN, United States (KFWA) 41-00N 85-12W 248M
Jan 27, 2022 - 06:54 PM EST / 2022.01.27 2354 UTC
Wind: from the SW (230 degrees) at 13 MPH (11 KT):0
Visibility: 10 mile(s):0
Sky conditions: overcast
Weather: 3 inches of snow on ground
Temperature: 28.9 F (-1.7 C)
Windchill: 17 F (-8 C):1
Dew Point: 23.0 F (-5.0 C)
Relative Humidity: 78%
Pressure (altimeter): 30.14 in. Hg (1020 hPa)
Pressure tendency: 0.05 inches (1.6 hPa) higher than three hours ago
ob: KFWA 272354Z 23011KT 10SM OVC019 M02/M05 A3014 RMK AO2 SLP219 4/003 T10171050 11017 21044 53016
cycle: 0

Station Type Date Time Source
KFWA TAF 2022/01/27 22:54 UTC NOAA

TAF
AMD KFWA 272152Z 2722/2818 26013KT P6SM OVC020
FM280100 26008KT P6SM OVC025
FM280900 35008KT P6SM BKN040
FM281600 02008KT P6SM SCT250

Example: see airport list